sensor_id;sensor_type;location;lat;lon;timestamp;noise_LAeq;noise_LA_min;noise_LA_max;noise_LA01;noise_LA95
37833;Laerm;23678;48.778;9.160;2024-02-26T00:01:47;36.59;29.92;39.58;;
37833;Laerm;23678;48.778;9.160;2024-02-26T00:04:31;36.58;29.92;39.58;;
37833;Laerm;23678;48.778;9.160;2024-02-26T00:07:16;36.57;29.92;39.70;;
37833;Laerm;23678;48.778;9.160;2024-02-26T00:10:00;36.60;28.67;39.58;;
37833;Laerm;23678;48.778;9.160;2024-02-26T00:12:44;36.56;30.89;39.70;;
37833;Laerm;23678;48.778;9.160;2024-02-26T00:15:28;36.54;29.92;39.78;;
37833;Laerm;23678;48.778;9.160;2024-02-26T00:18:12;36.58;30.89;39.70;;
37833;Laerm;23678;48.778;9.160;2024-02-26T00:20:56;37.68;29.92;42.59;;
37833;Laerm;23678;48.778;9.160;2024-02-26T00:23:40;36.77;28.67;41.14;;
37833;Laerm;23678;48.778;9.160;2024-02-26T00:26:24;38.55;26.91;51.10;;
37833;Laerm;23678;48.778;9.160;2024-02-26T00:29:08;36.56;28.67;39.81;;
37833;Laerm;23678;48.778;9.160;2024-02-26T00:31:52;36.66;29.57;39.92;;
37833;Laerm;23678;48.778;9.160;2024-02-26T00:34:36;36.56;26.91;39.46;;
37833;Laerm;23678;48.778;9.160;2024-02-26T00:37:20;36.52;28.67;39.34;;
37833;Laerm;23678;48.778;9.160;2024-02-26T00:40:04;36.54;28.67;39.58;;
37833;Laerm;23678;48.778;9.160;2024-02-26T00:42:48;36.56;28.67;39.81;;
37833;Laerm;23678;48.778;9.160;2024-02-26T00:45:32;36.91;28.32;41.38;;
37833;Laerm;23678;48.778;9.160;2024-02-26T00:48:16;37.40;26.91;42.03;;
37833;Laerm;23678;48.778;9.160;2024-02-26T00:51:00;36.65;28.67;40.23;;
37833;Laerm;23678;48.778;9.160;2024-02-26T00:53:44;37.36;30.89;42.65;;
37833;Laerm;23678;48.778;9.160;2024-02-26T00:56:28;38.36;28.67;44.03;;
37833;Laerm;23678;48.778;9.160;2024-02-26T00:59:12;36.70;29.92;39.70;;
37833;Laerm;23678;48.778;9.160;2024-02-26T01:01:56;36.78;29.92;40.54;;
37833;Laerm;23678;48.778;9.160;2024-02-26T01:04:42;36.50;29.92;40.03;;
37833;Laerm;23678;48.778;9.160;2024-02-26T01:07:29;36.73;29.92;40.71;;
37833;Laerm;23678;48.778;9.160;2024-02-26T01:10:17;36.53;28.67;39.58;;
37833;Laerm;23678;48.778;9.160;2024-02-26T01:13:01;36.59;30.89;39.46;;
37833;Laerm;23678;48.778;9.160;2024-02-26T01:15:45;36.54;29.92;42.93;;
37833;Laerm;23678;48.778;9.160;2024-02-26T01:18:29;36.58;30.89;39.58;;
37833;Laerm;23678;48.778;9.160;2024-02-26T01:21:13;36.51;28.67;39.46;;
37833;Laerm;23678;48.778;9.160;2024-02-26T01:23:57;37.30;30.89;43.29;;
37833;Laerm;23678;48.778;9.160;2024-02-26T01:26:41;36.64;23.90;40.23;;
37833;Laerm;23678;48.778;9.160;2024-02-26T01:29:25;36.51;28.67;39.46;;
37833;Laerm;23678;48.778;9.160;2024-02-26T01:32:09;36.56;28.67;39.58;;
37833;Laerm;23678;48.778;9.160;2024-02-26T01:34:53;36.51;29.92;39.34;;
37833;Laerm;23678;48.778;9.160;2024-02-26T01:37:37;37.28;30.89;41.82;;
37833;Laerm;23678;48.778;9.160;2024-02-26T01:40:21;36.72;30.89;39.70;;
37833;Laerm;23678;48.778;9.160;2024-02-26T01:43:05;36.70;29.92;41.82;;
37833;Laerm;23678;48.778;9.160;2024-02-26T01:45:49;36.56;28.67;39.58;;
37833;Laerm;23678;48.778;9.160;2024-02-26T01:48:33;36.60;26.91;39.46;;
37833;Laerm;23678;48.778;9.160;2024-02-26T01:51:17;36.59;29.92;39.46;;
37833;Laerm;23678;48.778;9.160;2024-02-26T01:54:02;37.67;30.54;42.71;;
37833;Laerm;23678;48.778;9.160;2024-02-26T01:56:46;36.60;30.89;40.33;;
37833;Laerm;23678;48.778;9.160;2024-02-26T01:59:30;36.61;29.92;40.33;;
37833;Laerm;23678;48.778;9.160;2024-02-26T02:02:14;36.53;26.91;39.46;;
37833;Laerm;23678;48.778;9.160;2024-02-26T02:04:59;37.35;29.92;44.73;;
37833;Laerm;23678;48.778;9.160;2024-02-26T02:07:43;36.49;29.92;39.46;;
37833;Laerm;23678;48.778;9.160;2024-02-26T02:10:28;36.49;26.91;39.58;;
37833;Laerm;23678;48.778;9.160;2024-02-26T02:13:13;36.69;26.91;40.80;;
37833;Laerm;23678;48.778;9.160;2024-02-26T02:15:57;37.13;30.89;41.06;;
37833;Laerm;23678;48.778;9.160;2024-02-26T02:18:41;36.53;28.67;39.70;;
37833;Laerm;23678;48.778;9.160;2024-02-26T02:21:24;36.50;28.67;39.46;;
37833;Laerm;23678;48.778;9.160;2024-02-26T02:24:09;37.65;26.91;46.97;;
37833;Laerm;23678;48.778;9.160;2024-02-26T02:26:52;36.63;29.92;40.62;;
37833;Laerm;23678;48.778;9.160;2024-02-26T02:29:36;37.25;30.89;42.59;;
37833;Laerm;23678;48.778;9.160;2024-02-26T02:32:20;36.48;28.67;39.81;;
37833;Laerm;23678;48.778;9.160;2024-02-26T02:35:05;36.48;29.92;39.70;;
37833;Laerm;23678;48.778;9.160;2024-02-26T02:37:52;36.57;29.92;39.81;;
37833;Laerm;23678;48.778;9.160;2024-02-26T02:40:37;36.52;23.90;39.46;;
37833;Laerm;23678;48.778;9.160;2024-02-26T02:43:21;36.54;28.67;40.03;;
37833;Laerm;23678;48.778;9.160;2024-02-26T02:46:05;36.59;26.91;39.81;;
37833;Laerm;23678;48.778;9.160;2024-02-26T02:48:48;36.68;29.92;39.70;;
37833;Laerm;23678;48.778;9.160;2024-02-26T02:51:33;36.52;29.92;39.46;;
37833;Laerm;23678;48.778;9.160;2024-02-26T02:57:35;36.84;29.92;43.44;;
37833;Laerm;23678;48.778;9.160;2024-02-26T03:00:24;36.53;29.92;39.58;;
37833;Laerm;23678;48.778;9.160;2024-02-26T03:03:08;36.69;29.92;46.89;;
37833;Laerm;23678;48.778;9.160;2024-02-26T03:05:52;36.54;28.67;40.13;;
37833;Laerm;23678;48.778;9.160;2024-02-26T03:08:36;36.51;29.92;39.81;;
37833;Laerm;23678;48.778;9.160;2024-02-26T03:11:21;36.52;26.91;39.81;;
37833;Laerm;23678;48.778;9.160;2024-02-26T03:14:05;36.66;29.92;40.23;;
37833;Laerm;23678;48.778;9.160;2024-02-26T03:20:11;36.62;29.92;39.81;;
37833;Laerm;23678;48.778;9.160;2024-02-26T03:22:55;36.57;29.92;43.29;;
37833;Laerm;23678;48.778;9.160;2024-02-26T03:25:39;36.63;29.92;39.58;;
37833;Laerm;23678;48.778;9.160;2024-02-26T03:28:23;36.58;28.67;39.58;;
37833;Laerm;23678;48.778;9.160;2024-02-26T03:31:07;36.73;26.91;40.23;;
37833;Laerm;23678;48.778;9.160;2024-02-26T03:33:51;36.81;28.67;41.53;;
37833;Laerm;23678;48.778;9.160;2024-02-26T03:36:35;37.47;30.89;43.77;;
37833;Laerm;23678;48.778;9.160;2024-02-26T03:39:19;37.02;28.67;42.65;;
37833;Laerm;23678;48.778;9.160;2024-02-26T03:42:03;36.88;28.67;43.28;;
37833;Laerm;23678;48.778;9.160;2024-02-26T03:44:47;36.74;30.89;42.98;;
37833;Laerm;23678;48.778;9.160;2024-02-26T03:47:31;37.75;30.89;47.50;;
37833;Laerm;23678;48.778;9.160;2024-02-26T03:50:15;37.00;30.89;41.68;;
37833;Laerm;23678;48.778;9.160;2024-02-26T03:53:00;38.56;30.89;44.69;;
37833;Laerm;23678;48.778;9.160;2024-02-26T03:55:44;37.26;30.89;42.03;;
37833;Laerm;23678;48.778;9.160;2024-02-26T03:58:28;38.10;29.92;45.07;;
37833;Laerm;23678;48.778;9.160;2024-02-26T04:01:12;37.13;29.92;41.22;;
37833;Laerm;23678;48.778;9.160;2024-02-26T04:03:55;38.20;29.92;51.75;;
37833;Laerm;23678;48.778;9.160;2024-02-26T04:06:39;36.98;30.89;39.92;;
37833;Laerm;23678;48.778;9.160;2024-02-26T04:09:23;37.17;31.68;41.14;;
37833;Laerm;23678;48.778;9.160;2024-02-26T04:12:07;37.46;31.68;42.16;;
37833;Laerm;23678;48.778;9.160;2024-02-26T04:14:51;37.13;32.35;40.33;;
37833;Laerm;23678;48.778;9.160;2024-02-26T04:17:36;37.24;30.54;40.13;;
37833;Laerm;23678;48.778;9.160;2024-02-26T04:20:21;37.59;31.68;43.49;;
37833;Laerm;23678;48.778;9.160;2024-02-26T04:23:05;37.27;31.68;42.41;;
37833;Laerm;23678;48.778;9.160;2024-02-26T04:25:49;37.43;31.68;41.53;;
37833;Laerm;23678;48.778;9.160;2024-02-26T04:28:32;38.65;31.68;50.71;;
37833;Laerm;23678;48.778;9.160;2024-02-26T04:31:16;38.69;31.68;51.62;;
37833;Laerm;23678;48.778;9.160;2024-02-26T04:34:00;39.60;31.68;53.68;;
37833;Laerm;23678;48.778;9.160;2024-02-26T04:36:44;40.71;29.92;55.21;;
37833;Laerm;23678;48.778;9.160;2024-02-26T04:39:28;40.87;31.68;54.60;;
37833;Laerm;23678;48.778;9.160;2024-02-26T04:42:12;38.13;30.89;49.75;;
37833;Laerm;23678;48.778;9.160;2024-02-26T04:44:56;37.78;30.89;44.83;;
37833;Laerm;23678;48.778;9.160;2024-02-26T04:47:40;37.82;28.67;46.82;;
37833;Laerm;23678;48.778;9.160;2024-02-26T04:50:24;38.52;31.68;48.90;;
37833;Laerm;23678;48.778;9.160;2024-02-26T04:53:08;39.12;31.68;48.64;;
37833;Laerm;23678;48.778;9.160;2024-02-26T04:55:51;38.33;30.89;47.28;;
37833;Laerm;23678;48.778;9.160;2024-02-26T04:58:35;37.88;30.89;45.07;;
37833;Laerm;23678;48.778;9.160;2024-02-26T05:01:19;38.12;30.89;44.94;;
37833;Laerm;23678;48.778;9.160;2024-02-26T05:04:03;38.97;30.89;49.65;;
37833;Laerm;23678;48.778;9.160;2024-02-26T05:06:47;38.91;32.35;49.12;;
37833;Laerm;23678;48.778;9.160;2024-02-26T05:09:31;39.06;32.35;47.98;;
37833;Laerm;23678;48.778;9.160;2024-02-26T05:12:15;37.59;30.89;44.69;;
37833;Laerm;23678;48.778;9.160;2024-02-26T05:14:59;38.31;32.35;45.14;;
37833;Laerm;23678;48.778;9.160;2024-02-26T05:17:44;38.58;31.68;52.03;;
37833;Laerm;23678;48.778;9.160;2024-02-26T05:20:28;38.59;30.89;50.49;;
37833;Laerm;23678;48.778;9.160;2024-02-26T05:23:12;38.28;30.89;48.64;;
37833;Laerm;23678;48.778;9.160;2024-02-26T05:25:56;38.92;32.35;49.70;;
37833;Laerm;23678;48.778;9.160;2024-02-26T05:28:40;38.96;29.92;50.60;;
37833;Laerm;23678;48.778;9.160;2024-02-26T05:31:24;39.56;29.92;51.97;;
37833;Laerm;23678;48.778;9.160;2024-02-26T05:34:08;41.32;32.93;58.10;;
37833;Laerm;23678;48.778;9.160;2024-02-26T05:36:52;41.33;32.58;54.68;;
37833;Laerm;23678;48.778;9.160;2024-02-26T05:39:36;39.16;32.93;50.28;;
37833;Laerm;23678;48.778;9.160;2024-02-26T05:42:20;39.53;33.44;50.15;;
37833;Laerm;23678;48.778;9.160;2024-02-26T05:45:04;39.44;32.93;51.43;;
37833;Laerm;23678;48.778;9.160;2024-02-26T05:47:49;38.50;32.93;53.30;;
37833;Laerm;23678;48.778;9.160;2024-02-26T05:50:33;41.71;34.69;52.30;;
37833;Laerm;23678;48.778;9.160;2024-02-26T05:53:17;39.77;33.44;47.72;;
37833;Laerm;23678;48.778;9.160;2024-02-26T05:56:01;45.88;33.44;64.82;;
37833;Laerm;23678;48.778;9.160;2024-02-26T05:58:45;42.03;33.44;64.39;;
37833;Laerm;23678;48.778;9.160;2024-02-26T06:01:29;42.06;33.90;54.36;;
37833;Laerm;23678;48.778;9.160;2024-02-26T06:04:14;39.07;33.44;49.83;;
37833;Laerm;23678;48.778;9.160;2024-02-26T06:06:58;40.28;33.97;50.24;;
37833;Laerm;23678;48.778;9.160;2024-02-26T06:09:42;40.13;33.44;48.37;;
37833;Laerm;23678;48.778;9.160;2024-02-26T06:12:25;40.95;35.04;53.00;;
37833;Laerm;23678;48.778;9.160;2024-02-26T06:15:11;40.79;35.04;57.64;;
37833;Laerm;23678;48.778;9.160;2024-02-26T06:17:55;41.68;35.04;52.00;;
37833;Laerm;23678;48.778;9.160;2024-02-26T06:20:39;43.34;35.36;55.61;;
37833;Laerm;23678;48.778;9.160;2024-02-26T06:23:23;41.07;34.69;51.09;;
37833;Laerm;23678;48.778;9.160;2024-02-26T06:26:07;42.20;33.44;56.63;;
37833;Laerm;23678;48.778;9.160;2024-02-26T06:28:51;40.15;33.90;49.82;;
37833;Laerm;23678;48.778;9.160;2024-02-26T06:31:36;42.38;36.69;58.11;;
37833;Laerm;23678;48.778;9.160;2024-02-26T06:34:20;39.84;34.69;49.70;;
37833;Laerm;23678;48.778;9.160;2024-02-26T06:37:03;42.33;36.69;53.76;;
37833;Laerm;23678;48.778;9.160;2024-02-26T06:39:51;41.25;34.69;50.79;;
37833;Laerm;23678;48.778;9.160;2024-02-26T06:42:35;42.45;36.45;53.72;;
37833;Laerm;23678;48.778;9.160;2024-02-26T06:45:19;44.20;37.32;53.73;;
37833;Laerm;23678;48.778;9.160;2024-02-26T06:48:04;40.97;35.66;49.71;;
37833;Laerm;23678;48.778;9.160;2024-02-26T06:50:48;44.67;35.66;60.16;;
37833;Laerm;23678;48.778;9.160;2024-02-26T06:53:32;42.42;35.36;52.84;;
37833;Laerm;23678;48.778;9.160;2024-02-26T06:56:16;46.85;35.36;77.08;;
37833;Laerm;23678;48.778;9.160;2024-02-26T06:59:00;42.91;35.94;54.13;;
37833;Laerm;23678;48.778;9.160;2024-02-26T07:01:44;42.11;35.66;53.26;;
37833;Laerm;23678;48.778;9.160;2024-02-26T07:04:28;42.14;34.69;51.55;;
37833;Laerm;23678;48.778;9.160;2024-02-26T07:07:12;41.86;33.44;50.10;;
37833;Laerm;23678;48.778;9.160;2024-02-26T07:09:56;41.86;35.36;53.90;;
37833;Laerm;23678;48.778;9.160;2024-02-26T07:12:40;41.32;36.56;52.11;;
37833;Laerm;23678;48.778;9.160;2024-02-26T07:15:24;41.37;35.04;50.95;;
37833;Laerm;23678;48.778;9.160;2024-02-26T07:18:07;39.98;35.36;51.13;;
37833;Laerm;23678;48.778;9.160;2024-02-26T07:20:51;42.23;35.36;54.61;;
37833;Laerm;23678;48.778;9.160;2024-02-26T07:23:35;40.96;35.66;54.74;;
37833;Laerm;23678;48.778;9.160;2024-02-26T07:26:19;40.77;35.31;50.70;;
37833;Laerm;23678;48.778;9.160;2024-02-26T07:29:03;40.84;35.36;48.77;;
37833;Laerm;23678;48.778;9.160;2024-02-26T07:31:47;41.06;35.66;53.01;;
37833;Laerm;23678;48.778;9.160;2024-02-26T07:34:31;41.59;34.69;52.43;;
37833;Laerm;23678;48.778;9.160;2024-02-26T07:37:15;42.20;35.04;54.69;;
37833;Laerm;23678;48.778;9.160;2024-02-26T07:40:00;42.10;36.69;51.65;;
37833;Laerm;23678;48.778;9.160;2024-02-26T07:42:43;42.12;32.35;56.46;;
37833;Laerm;23678;48.778;9.160;2024-02-26T07:45:28;41.13;35.36;49.46;;
37833;Laerm;23678;48.778;9.160;2024-02-26T07:48:12;42.55;35.66;52.39;;
37833;Laerm;23678;48.778;9.160;2024-02-26T07:50:57;41.17;35.36;50.14;;
37833;Laerm;23678;48.778;9.160;2024-02-26T07:53:43;41.84;35.04;52.15;;
37833;Laerm;23678;48.778;9.160;2024-02-26T07:56:27;39.80;35.04;48.99;;
37833;Laerm;23678;48.778;9.160;2024-02-26T07:59:11;41.94;35.36;53.30;;
37833;Laerm;23678;48.778;9.160;2024-02-26T08:01:55;42.45;36.20;52.21;;
37833;Laerm;23678;48.778;9.160;2024-02-26T08:04:39;40.59;35.04;47.10;;
37833;Laerm;23678;48.778;9.160;2024-02-26T08:07:23;42.47;35.66;57.03;;
37833;Laerm;23678;48.778;9.160;2024-02-26T08:10:07;40.24;35.36;49.15;;
37833;Laerm;23678;48.778;9.160;2024-02-26T08:12:51;39.47;32.35;50.66;;
37833;Laerm;23678;48.778;9.160;2024-02-26T08:15:35;40.54;35.04;48.37;;
37833;Laerm;23678;48.778;9.160;2024-02-26T08:18:20;40.59;33.44;48.69;;
37833;Laerm;23678;48.778;9.160;2024-02-26T08:21:04;39.48;33.44;45.25;;
37833;Laerm;23678;48.778;9.160;2024-02-26T08:23:48;39.47;33.90;47.67;;
37833;Laerm;23678;48.778;9.160;2024-02-26T08:26:32;40.88;34.69;50.65;;
37833;Laerm;23678;48.778;9.160;2024-02-26T08:29:16;41.07;34.69;48.37;;
37833;Laerm;23678;48.778;9.160;2024-02-26T08:32:00;40.93;35.04;54.10;;
37833;Laerm;23678;48.778;9.160;2024-02-26T08:34:44;42.05;33.44;54.96;;
37833;Laerm;23678;48.778;9.160;2024-02-26T08:37:28;39.61;33.90;50.55;;
37833;Laerm;23678;48.778;9.160;2024-02-26T08:40:12;39.06;33.90;43.34;;
37833;Laerm;23678;48.778;9.160;2024-02-26T08:42:56;39.94;32.93;52.96;;
37833;Laerm;23678;48.778;9.160;2024-02-26T08:45:41;39.42;33.90;47.10;;
37833;Laerm;23678;48.778;9.160;2024-02-26T08:48:25;39.16;32.93;46.62;;
37833;Laerm;23678;48.778;9.160;2024-02-26T08:51:09;40.86;34.69;57.51;;
37833;Laerm;23678;48.778;9.160;2024-02-26T08:53:53;40.10;33.90;45.11;;
37833;Laerm;23678;48.778;9.160;2024-02-26T08:56:38;39.66;34.31;50.53;;
37833;Laerm;23678;48.778;9.160;2024-02-26T08:59:22;40.59;35.04;46.33;;
37833;Laerm;23678;48.778;9.160;2024-02-26T09:02:07;39.08;33.44;44.83;;
37833;Laerm;23678;48.778;9.160;2024-02-26T09:04:53;39.52;32.35;48.60;;
37833;Laerm;23678;48.778;9.160;2024-02-26T09:07:38;39.43;33.90;46.13;;
37833;Laerm;23678;48.778;9.160;2024-02-26T09:10:22;41.23;34.69;45.75;;
37833;Laerm;23678;48.778;9.160;2024-02-26T09:13:06;39.66;33.44;50.98;;
37833;Laerm;23678;48.778;9.160;2024-02-26T09:15:50;40.59;33.09;51.04;;
37833;Laerm;23678;48.778;9.160;2024-02-26T09:18:34;40.95;32.93;49.83;;
37833;Laerm;23678;48.778;9.160;2024-02-26T09:21:18;39.73;33.90;47.32;;
37833;Laerm;23678;48.778;9.160;2024-02-26T09:24:06;38.55;32.35;45.04;;
37833;Laerm;23678;48.778;9.160;2024-02-26T09:26:50;39.19;33.44;48.07;;
37833;Laerm;23678;48.778;9.160;2024-02-26T09:29:35;39.96;33.90;49.78;;
37833;Laerm;23678;48.778;9.160;2024-02-26T09:32:19;39.93;32.35;52.53;;
37833;Laerm;23678;48.778;9.160;2024-02-26T09:35:03;40.68;35.04;51.98;;
37833;Laerm;23678;48.778;9.160;2024-02-26T09:37:47;40.70;33.90;56.24;;
37833;Laerm;23678;48.778;9.160;2024-02-26T09:40:32;40.84;34.31;51.03;;
37833;Laerm;23678;48.778;9.160;2024-02-26T09:43:16;39.81;33.90;46.62;;
37833;Laerm;23678;48.778;9.160;2024-02-26T09:46:01;39.13;32.93;47.68;;
37833;Laerm;23678;48.778;9.160;2024-02-26T09:48:45;39.09;32.93;45.48;;
37833;Laerm;23678;48.778;9.160;2024-02-26T09:51:30;39.31;31.68;49.52;;
37833;Laerm;23678;48.778;9.160;2024-02-26T09:54:15;39.83;31.68;49.11;;
37833;Laerm;23678;48.778;9.160;2024-02-26T09:57:02;40.26;33.44;50.07;;
37833;Laerm;23678;48.778;9.160;2024-02-26T09:59:47;38.93;32.93;47.14;;
37833;Laerm;23678;48.778;9.160;2024-02-26T10:02:33;42.02;35.04;51.22;;
37833;Laerm;23678;48.778;9.160;2024-02-26T10:05:19;39.46;34.31;48.69;;
37833;Laerm;23678;48.778;9.160;2024-02-26T10:08:03;39.30;33.90;50.10;;
37833;Laerm;23678;48.778;9.160;2024-02-26T10:10:48;40.59;33.90;49.98;;
37833;Laerm;23678;48.778;9.160;2024-02-26T10:13:32;40.94;33.44;53.45;;
37833;Laerm;23678;48.778;9.160;2024-02-26T10:16:16;41.03;32.93;47.63;;
37833;Laerm;23678;48.778;9.160;2024-02-26T10:19:00;39.48;33.44;48.73;;
37833;Laerm;23678;48.778;9.160;2024-02-26T10:21:44;40.40;32.93;49.83;;
37833;Laerm;23678;48.778;9.160;2024-02-26T10:24:29;39.42;31.68;48.46;;
37833;Laerm;23678;48.778;9.160;2024-02-26T10:27:13;39.21;32.93;51.80;;
37833;Laerm;23678;48.778;9.160;2024-02-26T10:29:58;41.17;34.31;57.54;;
37833;Laerm;23678;48.778;9.160;2024-02-26T10:32:42;39.45;32.35;48.66;;
37833;Laerm;23678;48.778;9.160;2024-02-26T10:35:26;38.77;31.68;43.94;;
37833;Laerm;23678;48.778;9.160;2024-02-26T10:38:12;38.63;30.89;54.11;;
37833;Laerm;23678;48.778;9.160;2024-02-26T10:40:56;39.11;30.89;47.74;;
37833;Laerm;23678;48.778;9.160;2024-02-26T10:43:41;40.11;33.44;48.43;;
37833;Laerm;23678;48.778;9.160;2024-02-26T10:46:26;40.67;34.31;49.49;;
37833;Laerm;23678;48.778;9.160;2024-02-26T10:49:14;40.10;33.90;46.73;;
37833;Laerm;23678;48.778;9.160;2024-02-26T10:51:59;42.69;33.90;58.81;;
37833;Laerm;23678;48.778;9.160;2024-02-26T10:54:43;41.19;32.93;47.40;;
37833;Laerm;23678;48.778;9.160;2024-02-26T10:57:40;39.67;32.93;50.03;;
37833;Laerm;23678;48.778;9.160;2024-02-26T11:00:25;41.24;32.93;51.30;;
37833;Laerm;23678;48.778;9.160;2024-02-26T11:03:10;40.00;32.93;47.10;;
37833;Laerm;23678;48.778;9.160;2024-02-26T11:05:54;40.66;35.94;48.21;;
37833;Laerm;23678;48.778;9.160;2024-02-26T11:08:39;39.87;32.35;49.57;;
37833;Laerm;23678;48.778;9.160;2024-02-26T11:11:23;40.59;31.68;52.36;;
37833;Laerm;23678;48.778;9.160;2024-02-26T11:14:33;40.94;31.68;56.56;;
37833;Laerm;23678;48.778;9.160;2024-02-26T11:17:17;40.55;33.44;55.74;;
37833;Laerm;23678;48.778;9.160;2024-02-26T11:20:03;39.78;30.89;50.77;;
37833;Laerm;23678;48.778;9.160;2024-02-26T11:22:47;39.38;33.44;47.02;;
37833;Laerm;23678;48.778;9.160;2024-02-26T11:25:31;39.09;31.68;49.30;;
37833;Laerm;23678;48.778;9.160;2024-02-26T11:28:15;38.98;31.68;48.28;;
37833;Laerm;23678;48.778;9.160;2024-02-26T11:31:01;39.21;30.89;47.93;;
37833;Laerm;23678;48.778;9.160;2024-02-26T11:33:45;38.92;32.35;46.52;;
37833;Laerm;23678;48.778;9.160;2024-02-26T11:36:30;39.35;31.68;47.10;;
37833;Laerm;23678;48.778;9.160;2024-02-26T11:39:13;38.76;32.93;47.54;;
37833;Laerm;23678;48.778;9.160;2024-02-26T11:42:04;37.84;31.68;42.93;;
37833;Laerm;23678;48.778;9.160;2024-02-26T11:44:49;38.90;32.35;48.51;;
37833;Laerm;23678;48.778;9.160;2024-02-26T11:47:34;39.84;33.44;49.92;;
37833;Laerm;23678;48.778;9.160;2024-02-26T11:50:32;42.90;32.35;58.34;;
37833;Laerm;23678;48.778;9.160;2024-02-26T11:53:28;40.15;33.44;48.03;;
37833;Laerm;23678;48.778;9.160;2024-02-26T11:59:09;40.43;32.93;50.18;;
37833;Laerm;23678;48.778;9.160;2024-02-26T12:01:53;39.87;33.90;46.59;;
37833;Laerm;23678;48.778;9.160;2024-02-26T12:04:37;40.22;33.44;50.04;;
37833;Laerm;23678;48.778;9.160;2024-02-26T12:07:21;41.50;34.69;51.44;;
37833;Laerm;23678;48.778;9.160;2024-02-26T12:18:37;40.42;33.44;56.38;;
37833;Laerm;23678;48.778;9.160;2024-02-26T12:21:21;41.79;32.35;55.79;;
37833;Laerm;23678;48.778;9.160;2024-02-26T12:24:12;39.81;32.93;45.89;;
37833;Laerm;23678;48.778;9.160;2024-02-26T12:26:56;38.06;30.89;45.39;;
37833;Laerm;23678;48.778;9.160;2024-02-26T12:29:41;40.11;30.89;51.93;;
37833;Laerm;23678;48.778;9.160;2024-02-26T12:32:26;40.05;32.35;47.46;;
37833;Laerm;23678;48.778;9.160;2024-02-26T12:35:09;40.06;32.93;48.81;;
37833;Laerm;23678;48.778;9.160;2024-02-26T12:37:54;40.13;32.35;47.48;;
37833;Laerm;23678;48.778;9.160;2024-02-26T12:40:37;39.50;32.35;47.00;;
37833;Laerm;23678;48.778;9.160;2024-02-26T12:43:22;39.29;32.35;52.73;;
37833;Laerm;23678;48.778;9.160;2024-02-26T12:46:06;39.93;33.44;51.47;;
37833;Laerm;23678;48.778;9.160;2024-02-26T12:48:50;40.30;28.67;51.73;;
37833;Laerm;23678;48.778;9.160;2024-02-26T12:51:34;40.26;32.93;49.38;;
37833;Laerm;23678;48.778;9.160;2024-02-26T12:54:18;38.20;31.68;42.82;;
37833;Laerm;23678;48.778;9.160;2024-02-26T12:57:02;38.26;31.68;45.17;;
37833;Laerm;23678;48.778;9.160;2024-02-26T12:59:48;38.74;32.93;47.61;;
37833;Laerm;23678;48.778;9.160;2024-02-26T13:02:32;40.50;33.90;49.02;;
37833;Laerm;23678;48.778;9.160;2024-02-26T13:05:18;39.36;29.92;51.08;;
37833;Laerm;23678;48.778;9.160;2024-02-26T13:08:02;38.30;32.35;43.14;;
37833;Laerm;23678;48.778;9.160;2024-02-26T13:10:47;39.88;32.93;49.87;;
37833;Laerm;23678;48.778;9.160;2024-02-26T13:13:31;39.86;31.68;51.40;;
37833;Laerm;23678;48.778;9.160;2024-02-26T13:16:15;39.26;31.68;47.36;;
37833;Laerm;23678;48.778;9.160;2024-02-26T13:19:09;39.79;33.44;48.43;;
37833;Laerm;23678;48.778;9.160;2024-02-26T13:21:54;40.64;33.44;56.26;;
37833;Laerm;23678;48.778;9.160;2024-02-26T13:24:37;43.28;29.92;59.39;;
37833;Laerm;23678;48.778;9.160;2024-02-26T13:27:24;40.35;32.35;57.32;;
37833;Laerm;23678;48.778;9.160;2024-02-26T13:30:10;39.71;32.35;48.18;;
37833;Laerm;23678;48.778;9.160;2024-02-26T13:32:55;39.35;30.89;53.56;;
37833;Laerm;23678;48.778;9.160;2024-02-26T13:35:39;39.31;32.93;49.93;;
37833;Laerm;23678;48.778;9.160;2024-02-26T13:38:24;39.03;30.89;43.44;;
37833;Laerm;23678;48.778;9.160;2024-02-26T13:41:08;39.31;30.89;44.54;;
37833;Laerm;23678;48.778;9.160;2024-02-26T13:43:52;39.68;32.35;45.60;;
37833;Laerm;23678;48.778;9.160;2024-02-26T13:46:36;39.65;32.35;48.98;;
37833;Laerm;23678;48.778;9.160;2024-02-26T13:49:20;40.26;32.93;50.26;;
37833;Laerm;23678;48.778;9.160;2024-02-26T13:52:04;39.60;32.93;52.36;;
37833;Laerm;23678;48.778;9.160;2024-02-26T13:54:48;39.13;32.35;47.50;;
37833;Laerm;23678;48.778;9.160;2024-02-26T13:57:32;39.63;28.67;48.54;;
37833;Laerm;23678;48.778;9.160;2024-02-26T14:00:16;39.45;32.93;46.80;;
37833;Laerm;23678;48.778;9.160;2024-02-26T14:03:00;40.70;34.31;53.82;;
37833;Laerm;23678;48.778;9.160;2024-02-26T14:05:44;39.86;32.93;48.70;;
37833;Laerm;23678;48.778;9.160;2024-02-26T14:08:28;39.81;29.92;51.59;;
37833;Laerm;23678;48.778;9.160;2024-02-26T14:11:12;39.65;33.44;48.63;;
37833;Laerm;23678;48.778;9.160;2024-02-26T14:13:56;38.99;30.89;46.66;;
37833;Laerm;23678;48.778;9.160;2024-02-26T14:16:40;39.15;31.68;46.62;;
37833;Laerm;23678;48.778;9.160;2024-02-26T14:19:24;40.03;33.90;53.21;;
37833;Laerm;23678;48.778;9.160;2024-02-26T14:22:08;41.09;34.69;52.89;;
37833;Laerm;23678;48.778;9.160;2024-02-26T14:24:52;41.23;32.35;56.45;;
37833;Laerm;23678;48.778;9.160;2024-02-26T14:27:36;43.25;34.69;64.94;;
37833;Laerm;23678;48.778;9.160;2024-02-26T14:30:20;39.82;32.35;49.41;;
37833;Laerm;23678;48.778;9.160;2024-02-26T14:33:04;41.54;35.04;51.08;;
37833;Laerm;23678;48.778;9.160;2024-02-26T14:35:48;39.89;33.44;46.25;;
37833;Laerm;23678;48.778;9.160;2024-02-26T14:38:32;38.42;32.35;46.38;;
37833;Laerm;23678;48.778;9.160;2024-02-26T14:41:16;39.83;32.93;46.64;;
37833;Laerm;23678;48.778;9.160;2024-02-26T14:44:00;40.25;34.69;48.63;;
37833;Laerm;23678;48.778;9.160;2024-02-26T14:46:44;40.00;33.90;47.32;;
37833;Laerm;23678;48.778;9.160;2024-02-26T14:49:28;40.55;33.90;50.74;;
37833;Laerm;23678;48.778;9.160;2024-02-26T14:52:14;40.67;32.35;52.44;;
37833;Laerm;23678;48.778;9.160;2024-02-26T14:54:58;39.81;32.35;46.45;;
37833;Laerm;23678;48.778;9.160;2024-02-26T14:57:43;39.04;30.89;46.48;;
37833;Laerm;23678;48.778;9.160;2024-02-26T15:00:27;39.63;31.68;47.93;;
37833;Laerm;23678;48.778;9.160;2024-02-26T15:03:11;39.79;33.44;49.90;;
37833;Laerm;23678;48.778;9.160;2024-02-26T15:05:55;38.50;32.35;44.47;;
37833;Laerm;23678;48.778;9.160;2024-02-26T15:08:39;39.32;32.35;48.67;;
37833;Laerm;23678;48.778;9.160;2024-02-26T15:11:23;39.78;32.93;47.18;;
37833;Laerm;23678;48.778;9.160;2024-02-26T15:14:07;39.07;32.93;48.91;;
37833;Laerm;23678;48.778;9.160;2024-02-26T15:16:52;39.85;33.44;51.63;;
37833;Laerm;23678;48.778;9.160;2024-02-26T15:19:36;39.35;30.89;46.50;;
37833;Laerm;23678;48.778;9.160;2024-02-26T15:22:20;40.31;33.90;47.67;;
37833;Laerm;23678;48.778;9.160;2024-02-26T15:25:04;39.88;30.89;47.40;;
37833;Laerm;23678;48.778;9.160;2024-02-26T15:27:48;38.36;32.35;43.99;;
37833;Laerm;23678;48.778;9.160;2024-02-26T15:30:32;39.89;32.93;50.58;;
37833;Laerm;23678;48.778;9.160;2024-02-26T15:33:16;40.16;32.35;49.50;;
37833;Laerm;23678;48.778;9.160;2024-02-26T15:36:02;39.62;33.90;48.70;;
37833;Laerm;23678;48.778;9.160;2024-02-26T15:38:45;40.81;33.90;50.20;;